sensor_id;sensor_type;location;lat;lon;timestamp;P1;durP1;ratioP1;P2;durP2;ratioP2
58990;SDS011;44781;53.444;14.476;2023-07-29T00:02:27;16.00;;;10.20;;
58990;SDS011;44781;53.444;14.476;2023-07-29T00:04:57;16.40;;;10.50;;
58990;SDS011;44781;53.444;14.476;2023-07-29T00:07:24;14.20;;;9.40;;
58990;SDS011;44781;53.444;14.476;2023-07-29T00:09:53;12.00;;;8.60;;
58990;SDS011;44781;53.444;14.476;2023-07-29T00:12:23;14.00;;;8.90;;
58990;SDS011;44781;53.444;14.476;2023-07-29T00:14:55;14.10;;;9.20;;
58990;SDS011;44781;53.444;14.476;2023-07-29T00:17:31;12.90;;;7.80;;
58990;SDS011;44781;53.444;14.476;2023-07-29T00:19:58;13.50;;;7.90;;
58990;SDS011;44781;53.444;14.476;2023-07-29T00:22:29;12.30;;;7.80;;
58990;SDS011;44781;53.444;14.476;2023-07-29T00:25:02;13.20;;;7.30;;
58990;SDS011;44781;53.444;14.476;2023-07-29T00:27:29;11.70;;;7.40;;
58990;SDS011;44781;53.444;14.476;2023-07-29T00:29:56;12.50;;;7.90;;
58990;SDS011;44781;53.444;14.476;2023-07-29T00:32:36;16.00;;;9.10;;
58990;SDS011;44781;53.444;14.476;2023-07-29T00:35:06;12.00;;;7.80;;
58990;SDS011;44781;53.444;14.476;2023-07-29T00:37:39;11.20;;;7.00;;
58990;SDS011;44781;53.444;14.476;2023-07-29T00:40:16;10.90;;;7.00;;
58990;SDS011;44781;53.444;14.476;2023-07-29T00:42:48;13.80;;;7.50;;
58990;SDS011;44781;53.444;14.476;2023-07-29T00:45:17;13.40;;;7.40;;
58990;SDS011;44781;53.444;14.476;2023-07-29T00:47:44;14.30;;;7.40;;
58990;SDS011;44781;53.444;14.476;2023-07-29T00:50:13;12.90;;;7.70;;
58990;SDS011;44781;53.444;14.476;2023-07-29T00:52:41;13.30;;;7.80;;
58990;SDS011;44781;53.444;14.476;2023-07-29T00:55:08;16.30;;;7.80;;
58990;SDS011;44781;53.444;14.476;2023-07-29T00:57:35;14.40;;;7.30;;
58990;SDS011;44781;53.444;14.476;2023-07-29T01:00:02;14.30;;;7.90;;
58990;SDS011;44781;53.444;14.476;2023-07-29T01:02:30;14.90;;;7.10;;
58990;SDS011;44781;53.444;14.476;2023-07-29T01:04:59;15.90;;;7.40;;
58990;SDS011;44781;53.444;14.476;2023-07-29T01:12:36;15.00;;;8.30;;
58990;SDS011;44781;53.444;14.476;2023-07-29T01:17:48;15.00;;;7.60;;
58990;SDS011;44781;53.444;14.476;2023-07-29T01:20:19;13.70;;;7.20;;
58990;SDS011;44781;53.444;14.476;2023-07-29T01:22:47;11.90;;;7.40;;
58990;SDS011;44781;53.444;14.476;2023-07-29T01:25:15;14.30;;;7.10;;
58990;SDS011;44781;53.444;14.476;2023-07-29T01:27:43;14.30;;;7.60;;
58990;SDS011;44781;53.444;14.476;2023-07-29T01:30:11;12.00;;;7.70;;
58990;SDS011;44781;53.444;14.476;2023-07-29T01:35:31;12.90;;;7.20;;
58990;SDS011;44781;53.444;14.476;2023-07-29T01:38:07;12.10;;;6.40;;
58990;SDS011;44781;53.444;14.476;2023-07-29T01:40:40;14.90;;;7.70;;
58990;SDS011;44781;53.444;14.476;2023-07-29T01:43:07;12.00;;;7.00;;
58990;SDS011;44781;53.444;14.476;2023-07-29T01:45:34;14.40;;;6.90;;
58990;SDS011;44781;53.444;14.476;2023-07-29T01:48:04;12.00;;;7.00;;
58990;SDS011;44781;53.444;14.476;2023-07-29T01:50:33;16.50;;;7.90;;
58990;SDS011;44781;53.444;14.476;2023-07-29T01:53:05;12.60;;;6.90;;
58990;SDS011;44781;53.444;14.476;2023-07-29T01:55:32;14.00;;;7.50;;
58990;SDS011;44781;53.444;14.476;2023-07-29T01:57:59;11.90;;;7.20;;
58990;SDS011;44781;53.444;14.476;2023-07-29T02:00:26;13.30;;;7.10;;
58990;SDS011;44781;53.444;14.476;2023-07-29T02:02:53;12.60;;;6.70;;
58990;SDS011;44781;53.444;14.476;2023-07-29T02:05:20;11.40;;;7.10;;
58990;SDS011;44781;53.444;14.476;2023-07-29T02:07:46;11.60;;;7.10;;
58990;SDS011;44781;53.444;14.476;2023-07-29T02:10:15;12.50;;;7.30;;
58990;SDS011;44781;53.444;14.476;2023-07-29T02:12:42;12.10;;;6.90;;
58990;SDS011;44781;53.444;14.476;2023-07-29T02:15:09;12.10;;;6.60;;
58990;SDS011;44781;53.444;14.476;2023-07-29T02:17:36;10.50;;;6.70;;
58990;SDS011;44781;53.444;14.476;2023-07-29T02:20:03;10.10;;;6.80;;
58990;SDS011;44781;53.444;14.476;2023-07-29T02:22:30;11.90;;;6.10;;
58990;SDS011;44781;53.444;14.476;2023-07-29T02:24:57;12.50;;;6.90;;
58990;SDS011;44781;53.444;14.476;2023-07-29T02:27:24;14.40;;;7.20;;
58990;SDS011;44781;53.444;14.476;2023-07-29T02:29:54;11.50;;;7.50;;
58990;SDS011;44781;53.444;14.476;2023-07-29T02:32:21;11.80;;;7.00;;
58990;SDS011;44781;53.444;14.476;2023-07-29T02:34:48;12.60;;;7.00;;
58990;SDS011;44781;53.444;14.476;2023-07-29T02:37:16;13.30;;;7.10;;
58990;SDS011;44781;53.444;14.476;2023-07-29T02:39:43;14.40;;;8.00;;
58990;SDS011;44781;53.444;14.476;2023-07-29T02:42:11;13.40;;;7.70;;
58990;SDS011;44781;53.444;14.476;2023-07-29T02:44:38;12.90;;;7.90;;
58990;SDS011;44781;53.444;14.476;2023-07-29T02:47:07;11.80;;;7.60;;
58990;SDS011;44781;53.444;14.476;2023-07-29T02:49:33;14.60;;;7.90;;
58990;SDS011;44781;53.444;14.476;2023-07-29T02:52:00;13.50;;;7.60;;
58990;SDS011;44781;53.444;14.476;2023-07-29T02:54:27;15.30;;;7.40;;
58990;SDS011;44781;53.444;14.476;2023-07-29T02:56:54;12.30;;;7.70;;
58990;SDS011;44781;53.444;14.476;2023-07-29T02:59:21;13.40;;;8.50;;
58990;SDS011;44781;53.444;14.476;2023-07-29T03:01:48;13.70;;;7.50;;
58990;SDS011;44781;53.444;14.476;2023-07-29T03:04:15;11.30;;;7.70;;
58990;SDS011;44781;53.444;14.476;2023-07-29T03:06:42;11.40;;;7.50;;
58990;SDS011;44781;53.444;14.476;2023-07-29T03:09:09;15.40;;;8.30;;
58990;SDS011;44781;53.444;14.476;2023-07-29T03:11:36;17.30;;;9.10;;
58990;SDS011;44781;53.444;14.476;2023-07-29T03:14:02;13.20;;;8.10;;
58990;SDS011;44781;53.444;14.476;2023-07-29T03:16:30;16.10;;;8.80;;
58990;SDS011;44781;53.444;14.476;2023-07-29T03:18:57;14.90;;;8.50;;
58990;SDS011;44781;53.444;14.476;2023-07-29T03:21:25;14.00;;;9.10;;
58990;SDS011;44781;53.444;14.476;2023-07-29T03:23:52;15.90;;;9.20;;
58990;SDS011;44781;53.444;14.476;2023-07-29T03:26:19;14.60;;;10.00;;
58990;SDS011;44781;53.444;14.476;2023-07-29T03:28:46;17.30;;;10.20;;
58990;SDS011;44781;53.444;14.476;2023-07-29T03:31:14;16.20;;;10.20;;
58990;SDS011;44781;53.444;14.476;2023-07-29T03:33:41;17.80;;;11.90;;
58990;SDS011;44781;53.444;14.476;2023-07-29T03:36:09;19.60;;;11.90;;
58990;SDS011;44781;53.444;14.476;2023-07-29T03:38:36;16.10;;;11.20;;
58990;SDS011;44781;53.444;14.476;2023-07-29T03:41:07;16.20;;;10.60;;
58990;SDS011;44781;53.444;14.476;2023-07-29T03:43:35;14.20;;;9.90;;
58990;SDS011;44781;53.444;14.476;2023-07-29T03:46:02;15.00;;;10.30;;
58990;SDS011;44781;53.444;14.476;2023-07-29T03:48:29;14.80;;;9.70;;
58990;SDS011;44781;53.444;14.476;2023-07-29T03:50:57;14.80;;;9.30;;
58990;SDS011;44781;53.444;14.476;2023-07-29T03:53:24;13.30;;;9.40;;
58990;SDS011;44781;53.444;14.476;2023-07-29T03:55:51;12.00;;;8.60;;
58990;SDS011;44781;53.444;14.476;2023-07-29T03:58:18;14.80;;;9.10;;
58990;SDS011;44781;53.444;14.476;2023-07-29T04:00:45;16.30;;;9.60;;
58990;SDS011;44781;53.444;14.476;2023-07-29T04:03:13;14.70;;;10.20;;
58990;SDS011;44781;53.444;14.476;2023-07-29T04:05:40;14.30;;;10.10;;
58990;SDS011;44781;53.444;14.476;2023-07-29T04:08:07;14.70;;;9.30;;
58990;SDS011;44781;53.444;14.476;2023-07-29T04:10:34;14.10;;;9.20;;
58990;SDS011;44781;53.444;14.476;2023-07-29T04:13:01;13.60;;;9.40;;
58990;SDS011;44781;53.444;14.476;2023-07-29T04:15:28;13.30;;;9.60;;
58990;SDS011;44781;53.444;14.476;2023-07-29T04:17:56;14.30;;;9.80;;
58990;SDS011;44781;53.444;14.476;2023-07-29T04:20:23;14.40;;;9.40;;
58990;SDS011;44781;53.444;14.476;2023-07-29T04:22:50;12.50;;;9.50;;
58990;SDS011;44781;53.444;14.476;2023-07-29T04:25:17;13.10;;;9.60;;
58990;SDS011;44781;53.444;14.476;2023-07-29T04:27:45;12.80;;;10.00;;
58990;SDS011;44781;53.444;14.476;2023-07-29T04:30:12;12.80;;;9.60;;
58990;SDS011;44781;53.444;14.476;2023-07-29T04:32:38;11.60;;;9.20;;
58990;SDS011;44781;53.444;14.476;2023-07-29T04:35:08;11.80;;;8.90;;
58990;SDS011;44781;53.444;14.476;2023-07-29T04:37:37;12.80;;;9.50;;
58990;SDS011;44781;53.444;14.476;2023-07-29T04:40:04;12.60;;;8.60;;
58990;SDS011;44781;53.444;14.476;2023-07-29T04:42:32;12.40;;;8.30;;
58990;SDS011;44781;53.444;14.476;2023-07-29T04:44:58;11.40;;;8.80;;
58990;SDS011;44781;53.444;14.476;2023-07-29T04:47:25;11.20;;;8.30;;
58990;SDS011;44781;53.444;14.476;2023-07-29T04:49:54;9.80;;;7.20;;
58990;SDS011;44781;53.444;14.476;2023-07-29T04:52:21;13.20;;;7.80;;
58990;SDS011;44781;53.444;14.476;2023-07-29T04:54:48;10.20;;;7.50;;
58990;SDS011;44781;53.444;14.476;2023-07-29T04:57:15;9.70;;;6.50;;
58990;SDS011;44781;53.444;14.476;2023-07-29T04:59:42;9.10;;;7.50;;
58990;SDS011;44781;53.444;14.476;2023-07-29T05:02:09;9.60;;;7.50;;
58990;SDS011;44781;53.444;14.476;2023-07-29T05:04:35;10.00;;;7.50;;
58990;SDS011;44781;53.444;14.476;2023-07-29T05:07:03;10.40;;;7.10;;
58990;SDS011;44781;53.444;14.476;2023-07-29T05:09:30;11.40;;;7.80;;
58990;SDS011;44781;53.444;14.476;2023-07-29T05:11:57;11.10;;;6.70;;
58990;SDS011;44781;53.444;14.476;2023-07-29T05:14:24;9.30;;;7.20;;
58990;SDS011;44781;53.444;14.476;2023-07-29T05:16:51;11.60;;;7.60;;
58990;SDS011;44781;53.444;14.476;2023-07-29T05:19:18;11.10;;;7.40;;
58990;SDS011;44781;53.444;14.476;2023-07-29T05:21:45;8.40;;;5.70;;
58990;SDS011;44781;53.444;14.476;2023-07-29T05:24:12;10.70;;;7.50;;
58990;SDS011;44781;53.444;14.476;2023-07-29T05:26:39;11.50;;;7.10;;
58990;SDS011;44781;53.444;14.476;2023-07-29T05:29:05;10.00;;;6.80;;
58990;SDS011;44781;53.444;14.476;2023-07-29T05:31:34;11.20;;;7.90;;
58990;SDS011;44781;53.444;14.476;2023-07-29T05:34:01;9.70;;;7.40;;
58990;SDS011;44781;53.444;14.476;2023-07-29T05:36:28;10.10;;;8.10;;
58990;SDS011;44781;53.444;14.476;2023-07-29T05:38:55;13.00;;;9.20;;
58990;SDS011;44781;53.444;14.476;2023-07-29T05:41:26;11.90;;;9.40;;
58990;SDS011;44781;53.444;14.476;2023-07-29T05:43:55;12.70;;;9.40;;
58990;SDS011;44781;53.444;14.476;2023-07-29T05:46:22;11.80;;;9.30;;
58990;SDS011;44781;53.444;14.476;2023-07-29T05:48:49;11.80;;;7.90;;
58990;SDS011;44781;53.444;14.476;2023-07-29T05:51:16;10.30;;;7.80;;
58990;SDS011;44781;53.444;14.476;2023-07-29T05:53:43;9.70;;;7.20;;
58990;SDS011;44781;53.444;14.476;2023-07-29T05:56:21;10.80;;;7.10;;
58990;SDS011;44781;53.444;14.476;2023-07-29T05:58:58;11.80;;;8.10;;
58990;SDS011;44781;53.444;14.476;2023-07-29T06:01:44;11.10;;;6.90;;
58990;SDS011;44781;53.444;14.476;2023-07-29T06:04:15;11.60;;;7.50;;
58990;SDS011;44781;53.444;14.476;2023-07-29T06:06:45;14.00;;;8.70;;
58990;SDS011;44781;53.444;14.476;2023-07-29T06:09:24;14.20;;;9.60;;
58990;SDS011;44781;53.444;14.476;2023-07-29T06:11:55;13.20;;;9.20;;
58990;SDS011;44781;53.444;14.476;2023-07-29T06:14:27;10.30;;;7.10;;
58990;SDS011;44781;53.444;14.476;2023-07-29T06:16:54;10.90;;;8.20;;
58990;SDS011;44781;53.444;14.476;2023-07-29T06:19:21;12.20;;;9.10;;
58990;SDS011;44781;53.444;14.476;2023-07-29T06:21:49;12.40;;;9.20;;
58990;SDS011;44781;53.444;14.476;2023-07-29T06:24:18;10.40;;;7.50;;
58990;SDS011;44781;53.444;14.476;2023-07-29T06:26:44;9.60;;;7.30;;
58990;SDS011;44781;53.444;14.476;2023-07-29T06:29:11;9.50;;;6.30;;
58990;SDS011;44781;53.444;14.476;2023-07-29T06:31:38;8.70;;;6.10;;
58990;SDS011;44781;53.444;14.476;2023-07-29T06:34:05;8.80;;;6.50;;
58990;SDS011;44781;53.444;14.476;2023-07-29T06:36:32;8.10;;;6.10;;
58990;SDS011;44781;53.444;14.476;2023-07-29T06:38:59;8.80;;;6.00;;
58990;SDS011;44781;53.444;14.476;2023-07-29T06:41:26;9.20;;;6.40;;
58990;SDS011;44781;53.444;14.476;2023-07-29T06:43:53;10.00;;;7.00;;
58990;SDS011;44781;53.444;14.476;2023-07-29T06:46:19;10.80;;;6.80;;
58990;SDS011;44781;53.444;14.476;2023-07-29T06:48:46;10.10;;;6.50;;
58990;SDS011;44781;53.444;14.476;2023-07-29T06:51:13;8.80;;;5.80;;
58990;SDS011;44781;53.444;14.476;2023-07-29T06:53:40;10.00;;;6.20;;
58990;SDS011;44781;53.444;14.476;2023-07-29T06:56:07;8.50;;;5.60;;
58990;SDS011;44781;53.444;14.476;2023-07-29T06:58:34;8.40;;;6.30;;
58990;SDS011;44781;53.444;14.476;2023-07-29T07:01:01;8.90;;;5.80;;
58990;SDS011;44781;53.444;14.476;2023-07-29T07:03:29;10.10;;;6.60;;
58990;SDS011;44781;53.444;14.476;2023-07-29T07:05:56;9.00;;;6.50;;
58990;SDS011;44781;53.444;14.476;2023-07-29T07:08:23;10.00;;;6.90;;
58990;SDS011;44781;53.444;14.476;2023-07-29T07:10:50;9.40;;;6.80;;
58990;SDS011;44781;53.444;14.476;2023-07-29T07:13:17;8.20;;;6.10;;
58990;SDS011;44781;53.444;14.476;2023-07-29T07:15:44;8.30;;;6.80;;
58990;SDS011;44781;53.444;14.476;2023-07-29T07:18:11;8.40;;;6.30;;
58990;SDS011;44781;53.444;14.476;2023-07-29T07:20:38;9.40;;;6.30;;
58990;SDS011;44781;53.444;14.476;2023-07-29T07:23:05;9.10;;;6.60;;
58990;SDS011;44781;53.444;14.476;2023-07-29T07:25:35;8.30;;;6.50;;
58990;SDS011;44781;53.444;14.476;2023-07-29T07:28:02;9.00;;;5.90;;
58990;SDS011;44781;53.444;14.476;2023-07-29T07:30:29;8.20;;;6.50;;
58990;SDS011;44781;53.444;14.476;2023-07-29T07:32:56;8.90;;;6.00;;
58990;SDS011;44781;53.444;14.476;2023-07-29T07:35:24;8.20;;;5.20;;
58990;SDS011;44781;53.444;14.476;2023-07-29T07:37:51;8.40;;;5.40;;
58990;SDS011;44781;53.444;14.476;2023-07-29T07:40:18;7.80;;;4.70;;
58990;SDS011;44781;53.444;14.476;2023-07-29T07:42:45;7.70;;;4.90;;
58990;SDS011;44781;53.444;14.476;2023-07-29T07:45:12;7.70;;;4.60;;
58990;SDS011;44781;53.444;14.476;2023-07-29T07:47:39;7.40;;;4.90;;
58990;SDS011;44781;53.444;14.476;2023-07-29T07:50:06;6.80;;;4.10;;
58990;SDS011;44781;53.444;14.476;2023-07-29T07:52:33;5.80;;;3.60;;
58990;SDS011;44781;53.444;14.476;2023-07-29T07:55:00;5.20;;;3.40;;
58990;SDS011;44781;53.444;14.476;2023-07-29T07:57:26;5.80;;;3.40;;
58990;SDS011;44781;53.444;14.476;2023-07-29T07:59:53;6.80;;;3.80;;
58990;SDS011;44781;53.444;14.476;2023-07-29T08:02:20;5.00;;;2.80;;
58990;SDS011;44781;53.444;14.476;2023-07-29T08:04:48;5.70;;;2.80;;
58990;SDS011;44781;53.444;14.476;2023-07-29T08:07:15;4.00;;;2.40;;
58990;SDS011;44781;53.444;14.476;2023-07-29T08:09:42;4.90;;;2.70;;
58990;SDS011;44781;53.444;14.476;2023-07-29T08:12:09;4.00;;;2.80;;
58990;SDS011;44781;53.444;14.476;2023-07-29T08:14:36;3.40;;;2.50;;
58990;SDS011;44781;53.444;14.476;2023-07-29T08:17:03;3.60;;;2.40;;
58990;SDS011;44781;53.444;14.476;2023-07-29T08:19:30;4.30;;;2.60;;
58990;SDS011;44781;53.444;14.476;2023-07-29T08:21:57;4.50;;;2.90;;
58990;SDS011;44781;53.444;14.476;2023-07-29T08:24:25;5.50;;;2.70;;
58990;SDS011;44781;53.444;14.476;2023-07-29T08:26:52;5.00;;;2.90;;
58990;SDS011;44781;53.444;14.476;2023-07-29T08:29:18;5.40;;;3.10;;
58990;SDS011;44781;53.444;14.476;2023-07-29T08:31:46;5.90;;;3.00;;
58990;SDS011;44781;53.444;14.476;2023-07-29T08:34:13;5.00;;;3.10;;
58990;SDS011;44781;53.444;14.476;2023-07-29T08:36:39;5.60;;;3.20;;
58990;SDS011;44781;53.444;14.476;2023-07-29T08:39:06;5.70;;;3.30;;
58990;SDS011;44781;53.444;14.476;2023-07-29T08:41:37;6.20;;;3.40;;
58990;SDS011;44781;53.444;14.476;2023-07-29T08:44:23;5.50;;;3.20;;
58990;SDS011;44781;53.444;14.476;2023-07-29T08:46:52;5.20;;;3.10;;
58990;SDS011;44781;53.444;14.476;2023-07-29T08:49:20;5.00;;;2.90;;
58990;SDS011;44781;53.444;14.476;2023-07-29T08:51:49;5.50;;;2.90;;
58990;SDS011;44781;53.444;14.476;2023-07-29T08:54:19;4.70;;;3.10;;
58990;SDS011;44781;53.444;14.476;2023-07-29T08:56:46;4.70;;;2.80;;
58990;SDS011;44781;53.444;14.476;2023-07-29T08:59:16;4.80;;;2.90;;
58990;SDS011;44781;53.444;14.476;2023-07-29T09:01:44;4.90;;;2.70;;
58990;SDS011;44781;53.444;14.476;2023-07-29T09:04:11;5.20;;;2.90;;
58990;SDS011;44781;53.444;14.476;2023-07-29T09:06:41;4.20;;;2.10;;
58990;SDS011;44781;53.444;14.476;2023-07-29T09:09:11;4.90;;;2.30;;
58990;SDS011;44781;53.444;14.476;2023-07-29T09:11:43;4.10;;;2.20;;
58990;SDS011;44781;53.444;14.476;2023-07-29T09:14:11;3.20;;;1.90;;
58990;SDS011;44781;53.444;14.476;2023-07-29T09:16:39;4.40;;;2.10;;
58990;SDS011;44781;53.444;14.476;2023-07-29T09:19:08;3.10;;;2.00;;
58990;SDS011;44781;53.444;14.476;2023-07-29T09:21:37;2.70;;;1.90;;
58990;SDS011;44781;53.444;14.476;2023-07-29T09:24:06;4.40;;;2.20;;
58990;SDS011;44781;53.444;14.476;2023-07-29T09:26:34;3.40;;;2.20;;
58990;SDS011;44781;53.444;14.476;2023-07-29T09:29:04;3.60;;;1.90;;
58990;SDS011;44781;53.444;14.476;2023-07-29T09:31:31;2.80;;;1.70;;
58990;SDS011;44781;53.444;14.476;2023-07-29T09:36:33;3.50;;;2.10;;
58990;SDS011;44781;53.444;14.476;2023-07-29T09:41:29;2.90;;;1.70;;
58990;SDS011;44781;53.444;14.476;2023-07-29T09:43:58;2.40;;;1.70;;
58990;SDS011;44781;53.444;14.476;2023-07-29T09:46:35;3.60;;;2.20;;
58990;SDS011;44781;53.444;14.476;2023-07-29T09:49:03;3.40;;;1.90;;
58990;SDS011;44781;53.444;14.476;2023-07-29T09:51:31;6.10;;;2.70;;
58990;SDS011;44781;53.444;14.476;2023-07-29T09:53:58;3.40;;;2.00;;
58990;SDS011;44781;53.444;14.476;2023-07-29T09:56:29;4.30;;;2.40;;
58990;SDS011;44781;53.444;14.476;2023-07-29T09:59:02;3.60;;;2.00;;
58990;SDS011;44781;53.444;14.476;2023-07-29T10:01:30;4.10;;;2.30;;
58990;SDS011;44781;53.444;14.476;2023-07-29T10:04:03;3.20;;;2.10;;
58990;SDS011;44781;53.444;14.476;2023-07-29T10:06:35;5.10;;;2.20;;
58990;SDS011;44781;53.444;14.476;2023-07-29T10:09:04;3.20;;;2.10;;
58990;SDS011;44781;53.444;14.476;2023-07-29T10:11:35;4.10;;;2.70;;
58990;SDS011;44781;53.444;14.476;2023-07-29T10:14:07;3.50;;;2.30;;
58990;SDS011;44781;53.444;14.476;2023-07-29T10:16:36;3.40;;;2.30;;
58990;SDS011;44781;53.444;14.476;2023-07-29T10:19:05;3.70;;;2.10;;
58990;SDS011;44781;53.444;14.476;2023-07-29T10:21:42;4.20;;;2.40;;
58990;SDS011;44781;53.444;14.476;2023-07-29T10:24:18;3.80;;;2.40;;
58990;SDS011;44781;53.444;14.476;2023-07-29T10:26:50;3.90;;;2.40;;
58990;SDS011;44781;53.444;14.476;2023-07-29T10:29:30;4.40;;;2.00;;
58990;SDS011;44781;53.444;14.476;2023-07-29T10:32:03;3.30;;;2.10;;
58990;SDS011;44781;53.444;14.476;2023-07-29T10:34:32;3.30;;;2.20;;
58990;SDS011;44781;53.444;14.476;2023-07-29T10:37:03;4.60;;;2.30;;
58990;SDS011;44781;53.444;14.476;2023-07-29T10:40:13;3.20;;;2.20;;
58990;SDS011;44781;53.444;14.476;2023-07-29T10:42:21;3.20;;;2.00;;
58990;SDS011;44781;53.444;14.476;2023-07-29T10:44:52;3.60;;;2.10;;
58990;SDS011;44781;53.444;14.476;2023-07-29T10:47:25;3.40;;;2.10;;
58990;SDS011;44781;53.444;14.476;2023-07-29T10:49:57;4.70;;;2.30;;
58990;SDS011;44781;53.444;14.476;2023-07-29T10:55:03;4.90;;;2.30;;
58990;SDS011;44781;53.444;14.476;2023-07-29T10:57:49;3.90;;;2.60;;
58990;SDS011;44781;53.444;14.476;2023-07-29T11:00:18;3.70;;;2.10;;
58990;SDS011;44781;53.444;14.476;2023-07-29T11:02:59;4.70;;;2.30;;
58990;SDS011;44781;53.444;14.476;2023-07-29T11:05:50;3.50;;;2.10;;
58990;SDS011;44781;53.444;14.476;2023-07-29T11:08:31;5.00;;;2.40;;
58990;SDS011;44781;53.444;14.476;2023-07-29T11:11:14;4.10;;;2.30;;
58990;SDS011;44781;53.444;14.476;2023-07-29T11:13:41;5.70;;;2.70;;
58990;SDS011;44781;53.444;14.476;2023-07-29T11:16:09;3.90;;;2.60;;
58990;SDS011;44781;53.444;14.476;2023-07-29T11:18:37;4.60;;;2.60;;
58990;SDS011;44781;53.444;14.476;2023-07-29T11:21:06;4.90;;;2.90;;
58990;SDS011;44781;53.444;14.476;2023-07-29T11:23:35;4.90;;;2.50;;
58990;SDS011;44781;53.444;14.476;2023-07-29T11:26:10;4.30;;;2.30;;
58990;SDS011;44781;53.444;14.476;2023-07-29T11:28:40;4.70;;;3.10;;
58990;SDS011;44781;53.444;14.476;2023-07-29T11:31:07;4.00;;;2.80;;
58990;SDS011;44781;53.444;14.476;2023-07-29T11:33:34;6.90;;;4.00;;
58990;SDS011;44781;53.444;14.476;2023-07-29T11:36:00;5.60;;;3.80;;
58990;SDS011;44781;53.444;14.476;2023-07-29T11:38:29;5.50;;;3.80;;
58990;SDS011;44781;53.444;14.476;2023-07-29T11:41:00;5.00;;;2.90;;
58990;SDS011;44781;53.444;14.476;2023-07-29T11:43:29;4.60;;;2.80;;
58990;SDS011;44781;53.444;14.476;2023-07-29T11:46:01;5.30;;;2.80;;
58990;SDS011;44781;53.444;14.476;2023-07-29T11:48:30;4.50;;;2.60;;
58990;SDS011;44781;53.444;14.476;2023-07-29T11:50:58;4.80;;;2.90;;
58990;SDS011;44781;53.444;14.476;2023-07-29T11:53:27;4.20;;;2.60;;
58990;SDS011;44781;53.444;14.476;2023-07-29T11:55:56;5.20;;;2.90;;
58990;SDS011;44781;53.444;14.476;2023-07-29T11:58:24;4.50;;;2.10;;
58990;SDS011;44781;53.444;14.476;2023-07-29T12:00:51;4.00;;;2.20;;
58990;SDS011;44781;53.444;14.476;2023-07-29T12:03:18;4.30;;;2.30;;
58990;SDS011;44781;53.444;14.476;2023-07-29T12:05:45;3.70;;;2.30;;
58990;SDS011;44781;53.444;14.476;2023-07-29T12:08:13;4.80;;;2.00;;
58990;SDS011;44781;53.444;14.476;2023-07-29T12:10:42;4.90;;;2.60;;
58990;SDS011;44781;53.444;14.476;2023-07-29T12:13:09;5.40;;;2.70;;
58990;SDS011;44781;53.444;14.476;2023-07-29T12:15:41;4.90;;;2.40;;
58990;SDS011;44781;53.444;14.476;2023-07-29T12:18:10;6.60;;;2.70;;
58990;SDS011;44781;53.444;14.476;2023-07-29T12:20:40;7.00;;;2.30;;
58990;SDS011;44781;53.444;14.476;2023-07-29T12:23:12;6.70;;;2.00;;
58990;SDS011;44781;53.444;14.476;2023-07-29T12:25:39;6.90;;;2.20;;
58990;SDS011;44781;53.444;14.476;2023-07-29T12:28:09;6.50;;;2.20;;
58990;SDS011;44781;53.444;14.476;2023-07-29T12:30:43;5.80;;;2.40;;
58990;SDS011;44781;53.444;14.476;2023-07-29T12:33:10;4.70;;;1.80;;
58990;SDS011;44781;53.444;14.476;2023-07-29T12:35:41;5.20;;;2.00;;
58990;SDS011;44781;53.444;14.476;2023-07-29T12:38:20;8.50;;;4.70;;
58990;SDS011;44781;53.444;14.476;2023-07-29T12:40:56;6.40;;;3.40;;
58990;SDS011;44781;53.444;14.476;2023-07-29T12:43:50;6.70;;;3.30;;
58990;SDS011;44781;53.444;14.476;2023-07-29T12:46:20;5.90;;;2.40;;
58990;SDS011;44781;53.444;14.476;2023-07-29T12:48:53;4.60;;;2.50;;
58990;SDS011;44781;53.444;14.476;2023-07-29T12:51:20;5.20;;;2.20;;
58990;SDS011;44781;53.444;14.476;2023-07-29T12:53:47;4.30;;;2.20;;
58990;SDS011;44781;53.444;14.476;2023-07-29T12:56:16;4.50;;;2.30;;
58990;SDS011;44781;53.444;14.476;2023-07-29T12:58:46;3.80;;;2.00;;
58990;SDS011;44781;53.444;14.476;2023-07-29T13:01:14;3.90;;;2.20;;
58990;SDS011;44781;53.444;14.476;2023-07-29T13:06:13;2.80;;;1.80;;
58990;SDS011;44781;53.444;14.476;2023-07-29T13:08:40;4.20;;;2.40;;
58990;SDS011;44781;53.444;14.476;2023-07-29T13:11:07;4.40;;;2.10;;
58990;SDS011;44781;53.444;14.476;2023-07-29T13:13:34;4.50;;;2.20;;
58990;SDS011;44781;53.444;14.476;2023-07-29T13:16:01;4.50;;;2.30;;
58990;SDS011;44781;53.444;14.476;2023-07-29T13:18:29;4.40;;;2.50;;
58990;SDS011;44781;53.444;14.476;2023-07-29T13:20:59;4.00;;;2.30;;
58990;SDS011;44781;53.444;14.476;2023-07-29T13:23:29;5.30;;;2.60;;
58990;SDS011;44781;53.444;14.476;2023-07-29T13:25:57;6.00;;;2.80;;
58990;SDS011;44781;53.444;14.476;2023-07-29T13:28:24;7.40;;;5.00;;
58990;SDS011;44781;53.444;14.476;2023-07-29T13:30:51;5.40;;;2.90;;
58990;SDS011;44781;53.444;14.476;2023-07-29T13:33:18;5.70;;;2.70;;
58990;SDS011;44781;53.444;14.476;2023-07-29T13:35:48;6.80;;;3.80;;
58990;SDS011;44781;53.444;14.476;2023-07-29T13:38:21;6.30;;;3.90;;
58990;SDS011;44781;53.444;14.476;2023-07-29T13:40:49;6.70;;;4.50;;
58990;SDS011;44781;53.444;14.476;2023-07-29T13:43:17;7.10;;;4.30;;
58990;SDS011;44781;53.444;14.476;2023-07-29T13:45:44;7.00;;;3.90;;
58990;SDS011;44781;53.444;14.476;2023-07-29T13:48:11;5.90;;;3.40;;
58990;SDS011;44781;53.444;14.476;2023-07-29T13:50:39;6.70;;;3.60;;
58990;SDS011;44781;53.444;14.476;2023-07-29T13:53:06;6.50;;;4.00;;
58990;SDS011;44781;53.444;14.476;2023-07-29T13:55:33;6.80;;;4.60;;
58990;SDS011;44781;53.444;14.476;2023-07-29T13:58:02;7.90;;;4.50;;
58990;SDS011;44781;53.444;14.476;2023-07-29T14:00:29;9.40;;;6.10;;
58990;SDS011;44781;53.444;14.476;2023-07-29T14:02:56;8.30;;;5.50;;
58990;SDS011;44781;53.444;14.476;2023-07-29T14:05:24;8.10;;;4.80;;
58990;SDS011;44781;53.444;14.476;2023-07-29T14:07:57;9.20;;;5.30;;
58990;SDS011;44781;53.444;14.476;2023-07-29T14:10:24;7.90;;;4.80;;
58990;SDS011;44781;53.444;14.476;2023-07-29T14:12:51;5.90;;;3.40;;
58990;SDS011;44781;53.444;14.476;2023-07-29T14:15:18;8.70;;;3.60;;
58990;SDS011;44781;53.444;14.476;2023-07-29T14:17:45;8.70;;;4.90;;
58990;SDS011;44781;53.444;14.476;2023-07-29T14:20:15;9.30;;;6.10;;
58990;SDS011;44781;53.444;14.476;2023-07-29T14:22:42;8.30;;;5.80;;
58990;SDS011;44781;53.444;14.476;2023-07-29T14:25:09;7.60;;;4.10;;
58990;SDS011;44781;53.444;14.476;2023-07-29T14:27:37;7.50;;;4.00;;
58990;SDS011;44781;53.444;14.476;2023-07-29T14:30:04;6.30;;;3.60;;
58990;SDS011;44781;53.444;14.476;2023-07-29T14:32:32;7.30;;;3.40;;
58990;SDS011;44781;53.444;14.476;2023-07-29T14:34:59;8.00;;;3.50;;
58990;SDS011;44781;53.444;14.476;2023-07-29T14:39:57;4.70;;;2.40;;
58990;SDS011;44781;53.444;14.476;2023-07-29T14:42:25;4.70;;;2.70;;
58990;SDS011;44781;53.444;14.476;2023-07-29T14:44:56;5.60;;;2.70;;
58990;SDS011;44781;53.444;14.476;2023-07-29T14:47:23;5.80;;;2.40;;
58990;SDS011;44781;53.444;14.476;2023-07-29T14:49:50;4.30;;;2.40;;
58990;SDS011;44781;53.444;14.476;2023-07-29T14:52:17;4.20;;;2.30;;
58990;SDS011;44781;53.444;14.476;2023-07-29T14:54:44;4.10;;;2.10;;
58990;SDS011;44781;53.444;14.476;2023-07-29T14:57:11;3.40;;;2.00;;
58990;SDS011;44781;53.444;14.476;2023-07-29T14:59:50;3.80;;;1.80;;
58990;SDS011;44781;53.444;14.476;2023-07-29T15:02:18;5.80;;;2.00;;